createdAt,value
2023-05-14T00:01:15.997Z,10.93
2023-05-14T00:03:43.006Z,11.80
2023-05-14T00:06:10.826Z,10.17
2023-05-14T00:08:37.732Z,10.30
2023-05-14T00:11:04.695Z,10.20
2023-05-14T00:13:31.554Z,10.00
2023-05-14T00:15:58.481Z,11.00
2023-05-14T00:18:25.466Z,10.60
2023-05-14T00:20:54.736Z,10.20
2023-05-14T00:23:22.908Z,10.00
2023-05-14T00:25:50.490Z,10.73
2023-05-14T00:28:17.409Z,10.53
2023-05-14T00:30:44.852Z,10.80
2023-05-14T00:33:13.717Z,9.30
2023-05-14T00:35:40.616Z,9.73
2023-05-14T00:38:07.504Z,10.53
2023-05-14T00:40:34.407Z,9.27
2023-05-14T00:43:01.277Z,9.50
2023-05-14T00:45:28.354Z,9.83
2023-05-14T00:47:55.838Z,10.03
2023-05-14T00:50:23.353Z,8.47
2023-05-14T00:52:50.839Z,8.57
2023-05-14T00:55:18.817Z,7.87
2023-05-14T00:57:45.832Z,7.20
2023-05-14T01:00:13.843Z,8.60
2023-05-14T01:02:40.888Z,7.43
2023-05-14T01:05:08.774Z,8.47
2023-05-14T01:08:08.316Z,8.27
2023-05-14T01:10:49.167Z,8.40
2023-05-14T01:13:42.085Z,8.23
2023-05-14T01:16:13.981Z,7.20
2023-05-14T01:18:43.256Z,7.10
2023-05-14T01:21:37.840Z,7.23
2023-05-14T01:24:05.446Z,7.77
2023-05-14T01:26:32.842Z,7.00
2023-05-14T01:29:18.852Z,7.57
2023-05-14T01:31:50.115Z,7.63
2023-05-14T01:34:21.562Z,8.03
2023-05-14T01:36:50.402Z,6.70
2023-05-14T01:39:17.795Z,7.70
2023-05-14T01:41:46.272Z,7.73
2023-05-14T01:44:13.232Z,9.17
2023-05-14T01:46:40.290Z,8.37
2023-05-14T01:49:07.226Z,7.73
2023-05-14T01:51:34.302Z,7.23
2023-05-14T01:54:01.277Z,6.17
2023-05-14T01:56:28.138Z,7.23
2023-05-14T01:58:56.731Z,7.33
2023-05-14T02:01:23.694Z,7.70
2023-05-14T02:03:50.701Z,7.30
2023-05-14T02:06:17.603Z,6.90
2023-05-14T02:08:44.442Z,8.10
2023-05-14T02:11:11.304Z,7.13
2023-05-14T02:13:38.278Z,7.17
2023-05-14T02:16:06.022Z,6.67
2023-05-14T02:18:32.947Z,6.10
2023-05-14T02:21:00.053Z,6.57
2023-05-14T02:23:37.798Z,6.60
2023-05-14T02:26:05.121Z,5.77
2023-05-14T02:28:31.995Z,5.97
2023-05-14T02:31:01.165Z,5.73
2023-05-14T02:33:28.564Z,6.30
2023-05-14T02:35:55.533Z,5.50
2023-05-14T02:38:23.530Z,6.17
2023-05-14T02:40:50.392Z,5.70
2023-05-14T02:43:17.268Z,6.37
2023-05-14T02:45:44.157Z,6.43
2023-05-14T02:48:11.100Z,6.10
2023-05-14T02:50:38.034Z,5.73
2023-05-14T02:53:04.917Z,5.93
2023-05-14T02:55:31.859Z,6.27
2023-05-14T02:57:58.760Z,5.30
2023-05-14T03:00:25.940Z,6.37
2023-05-14T03:02:53.474Z,6.43
2023-05-14T03:05:21.052Z,6.10
2023-05-14T03:07:48.026Z,6.87
2023-05-14T03:10:14.948Z,6.70
2023-05-14T03:12:42.019Z,6.60
2023-05-14T03:15:10.296Z,6.70
2023-05-14T03:17:37.334Z,5.90
2023-05-14T03:20:04.668Z,6.87
2023-05-14T03:22:31.637Z,5.90
2023-05-14T03:24:58.498Z,5.97
2023-05-14T03:27:25.383Z,6.70
2023-05-14T03:29:52.267Z,6.10
2023-05-14T03:32:19.512Z,6.57
2023-05-14T03:34:46.454Z,5.87
2023-05-14T03:37:13.339Z,6.70
2023-05-14T03:39:40.457Z,6.40
2023-05-14T03:42:07.382Z,6.13
2023-05-14T03:44:34.367Z,6.20
2023-05-14T03:47:01.243Z,5.73
2023-05-14T03:49:28.093Z,6.00
2023-05-14T03:51:54.986Z,5.93
2023-05-14T03:54:21.820Z,6.13
2023-05-14T03:56:48.676Z,6.03
2023-05-14T03:59:15.712Z,5.67
2023-05-14T04:01:44.352Z,6.43
2023-05-14T04:04:11.322Z,6.20
2023-05-14T04:06:38.701Z,5.47
2023-05-14T04:09:05.580Z,5.87
2023-05-14T04:11:32.468Z,6.83
2023-05-14T04:13:59.344Z,6.23
2023-05-14T04:16:26.397Z,5.53
2023-05-14T04:18:53.329Z,6.00
2023-05-14T04:21:20.224Z,6.30
2023-05-14T04:23:47.162Z,6.63
2023-05-14T04:26:14.014Z,6.50
2023-05-14T04:28:40.911Z,5.90
2023-05-14T04:31:08.038Z,5.97
2023-05-14T04:33:34.881Z,6.70
2023-05-14T04:36:02.021Z,5.67
2023-05-14T04:38:28.872Z,5.90
2023-05-14T04:40:55.789Z,6.10
2023-05-14T04:43:22.694Z,6.57
2023-05-14T04:45:49.655Z,6.30
2023-05-14T04:48:16.546Z,6.20
2023-05-14T04:50:44.238Z,6.20
2023-05-14T04:53:11.608Z,6.50
2023-05-14T04:55:39.455Z,6.20
2023-05-14T04:58:06.406Z,5.80
2023-05-14T05:00:33.540Z,6.00
2023-05-14T05:03:00.820Z,6.20
2023-05-14T05:05:27.806Z,6.20
2023-05-14T05:07:55.067Z,5.90
2023-05-14T05:10:22.201Z,5.50
2023-05-14T05:12:49.178Z,5.07
2023-05-14T05:15:16.142Z,5.87
2023-05-14T05:17:43.143Z,5.70
2023-05-14T05:20:10.791Z,6.13
2023-05-14T05:22:38.527Z,6.00
2023-05-14T05:25:06.402Z,6.40
2023-05-14T05:27:33.448Z,5.90
2023-05-14T05:30:02.890Z,6.30
2023-05-14T05:32:30.157Z,6.43
2023-05-14T05:34:57.270Z,6.20
2023-05-14T05:37:24.171Z,5.87
2023-05-14T05:39:51.053Z,6.00
2023-05-14T05:42:17.922Z,5.67
2023-05-14T05:44:45.026Z,5.80
2023-05-14T05:47:12.656Z,6.10
2023-05-14T05:49:39.567Z,6.53
2023-05-14T05:52:06.975Z,6.10
2023-05-14T05:54:34.370Z,6.90
2023-05-14T05:57:08.668Z,6.10
2023-05-14T05:59:36.190Z,5.43
2023-05-14T06:02:03.169Z,5.90
2023-05-14T06:04:30.089Z,6.30
2023-05-14T06:06:56.975Z,6.03
2023-05-14T06:09:23.813Z,5.67
2023-05-14T06:11:50.691Z,5.90
2023-05-14T06:14:17.577Z,5.60
2023-05-14T06:16:44.547Z,11.90
2023-05-14T06:19:11.602Z,4.97
2023-05-14T06:21:38.746Z,6.27
2023-05-14T06:24:06.180Z,6.10
2023-05-14T06:26:33.227Z,5.80
2023-05-14T06:29:00.146Z,5.80
2023-05-14T06:31:27.073Z,6.23
2023-05-14T06:33:53.955Z,5.23
2023-05-14T06:36:20.933Z,5.57
2023-05-14T06:38:47.849Z,5.70
2023-05-14T06:41:14.726Z,5.87
2023-05-14T06:43:41.614Z,6.00
2023-05-14T06:46:08.849Z,5.80
2023-05-14T06:48:36.503Z,6.47
2023-05-14T06:51:03.880Z,5.23
2023-05-14T06:53:31.314Z,6.63
2023-05-14T06:55:58.209Z,6.50
2023-05-14T06:58:25.132Z,7.23
2023-05-14T07:00:52.125Z,5.60
2023-05-14T07:03:19.298Z,5.37
2023-05-14T07:05:46.847Z,6.97
2023-05-14T07:08:13.926Z,5.97
2023-05-14T07:10:40.975Z,5.27
2023-05-14T07:13:08.724Z,5.70
2023-05-14T07:15:35.628Z,6.27
2023-05-14T07:18:02.556Z,5.33
2023-05-14T07:20:29.562Z,4.97
2023-05-14T07:22:56.491Z,5.57
2023-05-14T07:25:23.454Z,4.97
2023-05-14T07:27:50.372Z,4.97
2023-05-14T07:30:17.368Z,4.60
2023-05-14T07:32:44.826Z,5.20
2023-05-14T07:35:11.849Z,5.37
2023-05-14T07:37:38.850Z,4.73
2023-05-14T07:40:08.105Z,4.90
2023-05-14T07:42:37.015Z,5.37
2023-05-14T07:45:06.085Z,5.57
2023-05-14T07:47:33.368Z,4.60
2023-05-14T07:50:00.540Z,4.87
2023-05-14T07:52:27.543Z,4.47
2023-05-14T07:54:55.013Z,3.70
2023-05-14T07:57:22.094Z,4.40
2023-05-14T07:59:49.220Z,4.13
2023-05-14T08:02:16.954Z,3.20
2023-05-14T08:04:44.352Z,3.33
2023-05-14T08:07:11.541Z,3.37
2023-05-14T08:09:38.512Z,3.60
2023-05-14T08:12:06.607Z,3.77
2023-05-14T08:14:33.469Z,3.17
2023-05-14T08:17:00.626Z,4.07
2023-05-14T08:19:27.848Z,3.30
2023-05-14T08:21:54.917Z,3.40
2023-05-14T08:24:21.771Z,3.30
2023-05-14T08:26:48.663Z,3.40
2023-05-14T08:29:16.565Z,3.50
2023-05-14T08:31:43.913Z,3.07
2023-05-14T08:34:10.892Z,3.53
2023-05-14T08:36:38.990Z,3.40
2023-05-14T08:39:07.719Z,3.20
2023-05-14T08:41:35.425Z,3.20
2023-05-14T08:44:14.900Z,3.60
2023-05-14T08:46:42.287Z,3.13
2023-05-14T08:49:32.558Z,3.87
2023-05-14T08:52:00.661Z,3.20
2023-05-14T08:54:28.784Z,2.60
2023-05-14T08:56:55.979Z,3.07
2023-05-14T08:59:22.851Z,2.80
2023-05-14T09:01:53.902Z,3.00
2023-05-14T09:04:23.408Z,3.13
2023-05-14T09:06:53.681Z,2.80
2023-05-14T09:09:23.850Z,3.13
2023-05-14T09:11:54.670Z,2.80
2023-05-14T09:14:23.293Z,2.63
2023-05-14T09:16:51.472Z,2.70
2023-05-14T09:19:19.460Z,2.83
2023-05-14T09:21:48.081Z,3.00
2023-05-14T09:24:23.915Z,3.17
2023-05-14T09:26:56.277Z,2.53
2023-05-14T09:29:28.332Z,2.63
2023-05-14T09:31:57.005Z,2.50
2023-05-14T09:34:31.497Z,2.40
2023-05-14T09:37:06.380Z,2.97
2023-05-14T09:39:36.321Z,3.00
2023-05-14T09:42:03.790Z,2.20
2023-05-14T09:44:30.738Z,2.53
2023-05-14T09:46:57.675Z,2.80
2023-05-14T09:49:24.575Z,2.17
2023-05-14T09:51:51.671Z,2.47
2023-05-14T09:54:18.725Z,2.70
2023-05-14T09:56:45.784Z,2.47
2023-05-14T09:59:12.790Z,2.97
2023-05-14T10:01:43.613Z,2.90
2023-05-14T10:04:12.006Z,3.67
2023-05-14T10:06:40.234Z,3.40
2023-05-14T10:09:16.961Z,2.37
2023-05-14T10:11:45.549Z,2.53
2023-05-14T10:14:25.306Z,3.67
2023-05-14T10:16:54.132Z,4.17
2023-05-14T10:19:24.424Z,3.90
2023-05-14T10:22:04.802Z,3.80
2023-05-14T10:24:32.939Z,3.70
2023-05-14T10:27:00.040Z,2.90
2023-05-14T10:29:38.119Z,3.70
2023-05-14T10:32:07.781Z,3.37
2023-05-14T10:34:45.902Z,3.40
2023-05-14T10:37:25.916Z,10.10
2023-05-14T10:39:58.662Z,3.80
2023-05-14T10:42:35.865Z,3.83
2023-05-14T10:45:07.566Z,3.50
2023-05-14T10:47:43.636Z,3.23
2023-05-14T10:50:13.301Z,4.00
2023-05-14T10:52:44.835Z,3.67
2023-05-14T10:55:17.170Z,3.23
2023-05-14T10:57:46.310Z,3.20
2023-05-14T11:00:14.926Z,3.60
2023-05-14T11:02:44.748Z,3.80
2023-05-14T11:05:17.629Z,3.10
2023-05-14T11:07:49.927Z,3.80
2023-05-14T11:10:19.789Z,3.50
2023-05-14T11:12:51.263Z,4.13
2023-05-14T11:15:29.160Z,3.03
2023-05-14T11:17:56.551Z,4.67
2023-05-14T11:20:23.862Z,3.03
2023-05-14T11:22:55.277Z,3.93
2023-05-14T11:25:25.561Z,3.80
2023-05-14T11:27:55.945Z,4.33
2023-05-14T11:30:23.123Z,4.10
2023-05-14T11:32:51.293Z,4.40
2023-05-14T11:35:18.953Z,3.80
2023-05-14T11:37:52.637Z,5.07
2023-05-14T11:40:19.853Z,3.90
2023-05-14T11:42:46.995Z,3.50
2023-05-14T11:45:25.525Z,3.93
2023-05-14T11:47:54.742Z,3.73
2023-05-14T11:50:23.305Z,3.63
2023-05-14T11:52:50.986Z,4.40
2023-05-14T11:55:18.070Z,3.87
2023-05-14T11:57:45.001Z,4.23
2023-05-14T12:00:21.325Z,3.63
2023-05-14T12:02:49.927Z,4.17
2023-05-14T12:05:17.421Z,3.53
2023-05-14T12:07:47.986Z,3.93
2023-05-14T12:10:15.711Z,4.17
2023-05-14T12:12:47.359Z,3.93
2023-05-14T12:15:16.438Z,3.80
2023-05-14T12:17:49.699Z,3.40
2023-05-14T12:20:17.480Z,4.70
2023-05-14T12:22:44.404Z,4.93
2023-05-14T12:25:16.076Z,3.90
2023-05-14T12:27:45.520Z,4.23
2023-05-14T12:30:34.686Z,4.20
2023-05-14T12:33:01.019Z,4.33
2023-05-14T12:35:28.040Z,4.30
2023-05-14T12:37:55.127Z,4.37
2023-05-14T12:40:22.159Z,4.13
2023-05-14T12:42:49.218Z,4.00
2023-05-14T12:45:16.251Z,3.60
2023-05-14T12:47:43.170Z,4.80
2023-05-14T12:50:10.451Z,3.67
2023-05-14T12:52:39.688Z,4.17
2023-05-14T12:55:09.276Z,3.77
2023-05-14T12:57:37.290Z,3.40
2023-05-14T13:00:08.418Z,3.80
2023-05-14T13:02:42.914Z,3.87
2023-05-14T13:05:14.106Z,3.43
2023-05-14T13:07:41.303Z,4.10
2023-05-14T13:10:09.088Z,4.07
2023-05-14T13:12:36.035Z,3.50
2023-05-14T13:15:02.946Z,4.10
2023-05-14T13:17:31.086Z,3.80
2023-05-14T13:19:58.229Z,3.80
2023-05-14T13:22:25.219Z,4.50
2023-05-14T13:24:52.094Z,5.20
2023-05-14T13:27:19.052Z,3.40
2023-05-14T13:29:45.965Z,4.10
2023-05-14T13:32:12.833Z,3.83
2023-05-14T13:34:39.751Z,3.57
2023-05-14T13:37:07.356Z,3.50
2023-05-14T13:39:34.256Z,3.20
2023-05-14T13:42:01.621Z,3.50
2023-05-14T13:44:28.614Z,3.30
2023-05-14T13:46:55.529Z,3.50
2023-05-14T13:49:22.688Z,3.90
2023-05-14T13:51:49.634Z,3.67
2023-05-14T13:54:16.506Z,4.03
2023-05-14T13:56:43.453Z,4.57
2023-05-14T13:59:11.152Z,4.80
2023-05-14T14:01:38.113Z,4.13
2023-05-14T14:04:05.230Z,3.70
2023-05-14T14:06:33.309Z,3.47
2023-05-14T14:09:00.354Z,3.07
2023-05-14T14:11:27.709Z,3.53
2023-05-14T14:13:54.642Z,3.80
2023-05-14T14:16:21.775Z,3.87
2023-05-14T14:18:48.807Z,4.00
2023-05-14T14:21:18.262Z,4.67
2023-05-14T14:23:48.871Z,3.53
2023-05-14T14:26:15.808Z,3.50
2023-05-14T14:28:42.956Z,3.30
2023-05-14T14:31:10.232Z,3.37
2023-05-14T14:33:37.133Z,3.60
2023-05-14T14:36:04.571Z,3.20
2023-05-14T14:38:31.498Z,4.40
2023-05-14T14:40:58.784Z,4.20
2023-05-14T14:43:25.781Z,4.60
2023-05-14T14:45:52.730Z,5.30
2023-05-14T14:48:33.857Z,3.70
2023-05-14T14:51:01.565Z,3.77
2023-05-14T14:53:28.620Z,3.50
2023-05-14T14:55:56.283Z,4.00
2023-05-14T14:58:24.268Z,3.50
2023-05-14T15:00:56.784Z,2.80
2023-05-14T15:03:25.313Z,3.30
2023-05-14T15:05:53.630Z,3.17
2023-05-14T15:08:24.806Z,3.47
2023-05-14T15:10:52.137Z,3.30
2023-05-14T15:13:19.632Z,3.80
2023-05-14T15:15:47.144Z,3.13
2023-05-14T15:18:14.124Z,3.70
2023-05-14T15:20:41.060Z,3.60
2023-05-14T15:23:08.137Z,3.57
2023-05-14T15:25:35.849Z,3.60
2023-05-14T15:28:02.897Z,2.87
2023-05-14T15:30:30.769Z,3.10
2023-05-14T15:32:57.775Z,3.40
2023-05-14T15:35:24.963Z,3.60
2023-05-14T15:37:55.828Z,3.00
2023-05-14T15:40:23.467Z,3.30
2023-05-14T15:42:50.741Z,3.30
2023-05-14T15:45:17.902Z,3.53
2023-05-14T15:47:45.228Z,3.50
2023-05-14T15:50:12.683Z,3.43
2023-05-14T15:52:40.168Z,3.60
2023-05-14T15:55:07.706Z,5.53
2023-05-14T15:57:34.879Z,5.40
2023-05-14T16:00:02.284Z,4.00
2023-05-14T16:02:30.689Z,4.20
2023-05-14T16:04:57.627Z,3.20
2023-05-14T16:07:24.572Z,4.60
2023-05-14T16:09:51.751Z,4.47
2023-05-14T16:12:18.768Z,3.83
2023-05-14T16:14:45.674Z,3.30
2023-05-14T16:17:12.671Z,3.60
2023-05-14T16:19:40.097Z,3.47
2023-05-14T16:22:07.475Z,2.73
2023-05-14T16:24:34.412Z,3.60
2023-05-14T16:27:01.506Z,3.60
2023-05-14T16:29:28.564Z,3.90
2023-05-14T16:31:55.481Z,3.60
2023-05-14T16:34:22.426Z,3.87
2023-05-14T16:36:49.335Z,3.33
2023-05-14T16:39:16.526Z,3.17
2023-05-14T16:41:43.445Z,3.40
2023-05-14T16:44:10.620Z,3.50
2023-05-14T16:46:37.738Z,4.30
2023-05-14T16:49:04.845Z,3.33
2023-05-14T16:51:31.800Z,3.17
2023-05-14T16:53:58.824Z,3.40
2023-05-14T16:56:26.496Z,3.90
2023-05-14T16:58:53.471Z,3.60
2023-05-14T17:01:20.559Z,3.60
2023-05-14T17:03:47.535Z,3.87
2023-05-14T17:06:14.511Z,3.30
2023-05-14T17:08:41.393Z,3.50
2023-05-14T17:11:08.306Z,3.17
2023-05-14T17:13:35.587Z,4.00
2023-05-14T17:16:02.642Z,3.50
2023-05-14T17:18:29.887Z,3.50
2023-05-14T17:20:56.950Z,3.53
2023-05-14T17:23:23.953Z,3.70
2023-05-14T17:25:51.129Z,3.20
2023-05-14T17:28:18.069Z,3.80
2023-05-14T17:30:44.961Z,4.00
2023-05-14T17:33:11.946Z,4.90
2023-05-14T17:35:39.086Z,4.57
2023-05-14T17:38:06.023Z,5.20
2023-05-14T17:40:33.460Z,4.53
2023-05-14T17:43:00.630Z,4.90
2023-05-14T17:45:28.565Z,4.27
2023-05-14T17:50:24.383Z,5.20
2023-05-14T17:52:51.255Z,4.27
2023-05-14T17:55:19.109Z,4.30
2023-05-14T17:57:46.814Z,4.13
2023-05-14T18:00:14.266Z,4.23
2023-05-14T18:02:41.538Z,4.20
2023-05-14T18:05:08.809Z,4.60
2023-05-14T18:07:36.624Z,4.63
2023-05-14T18:10:04.486Z,4.50
2023-05-14T18:12:31.384Z,4.13
2023-05-14T18:14:58.214Z,4.47
2023-05-14T18:17:25.295Z,4.60
2023-05-14T18:19:52.213Z,4.10
2023-05-14T18:22:21.493Z,4.83
2023-05-14T18:24:48.614Z,4.93
2023-05-14T18:27:15.665Z,4.27
2023-05-14T18:29:43.351Z,5.67
2023-05-14T18:32:10.246Z,4.80
2023-05-14T18:34:37.158Z,4.90
2023-05-14T18:37:04.135Z,5.03
2023-05-14T18:39:31.050Z,4.50
2023-05-14T18:41:57.958Z,5.50
2023-05-14T18:44:24.854Z,5.10
2023-05-14T18:46:52.041Z,5.03
2023-05-14T18:49:18.877Z,5.67
2023-05-14T18:51:45.861Z,5.77
2023-05-14T18:54:12.694Z,5.60
2023-05-14T18:56:44.909Z,5.77
2023-05-14T18:59:13.806Z,6.77
2023-05-14T19:01:40.721Z,7.33
2023-05-14T19:04:08.180Z,7.87
2023-05-14T19:06:36.136Z,9.53
2023-05-14T19:09:04.244Z,8.63
2023-05-14T19:11:31.117Z,7.17
2023-05-14T19:13:57.965Z,8.40
2023-05-14T19:16:24.978Z,7.43
2023-05-14T19:18:52.092Z,7.90
2023-05-14T19:21:19.091Z,7.90
2023-05-14T19:23:46.050Z,8.60
2023-05-14T19:26:12.944Z,5.70
2023-05-14T19:28:39.941Z,7.30
2023-05-14T19:31:06.887Z,7.20
2023-05-14T19:33:33.822Z,7.63
2023-05-14T19:36:01.791Z,7.60
2023-05-14T19:38:29.589Z,7.50
2023-05-14T19:40:57.063Z,10.53
2023-05-14T19:43:25.559Z,10.60
2023-05-14T19:45:52.678Z,9.23
2023-05-14T19:48:19.643Z,9.60
2023-05-14T19:50:47.354Z,11.00
2023-05-14T19:53:14.617Z,10.67
2023-05-14T19:55:41.747Z,9.20
2023-05-14T19:58:08.992Z,9.10
2023-05-14T20:00:37.049Z,10.67
2023-05-14T20:03:05.756Z,14.90
2023-05-14T20:05:34.420Z,12.10
2023-05-14T20:08:01.655Z,11.30
2023-05-14T20:10:28.734Z,10.40
2023-05-14T20:12:55.661Z,9.90
2023-05-14T20:15:22.553Z,12.90
2023-05-14T20:17:49.485Z,9.87
2023-05-14T20:20:16.663Z,11.27
2023-05-14T20:22:44.075Z,9.33
2023-05-14T20:25:11.056Z,9.20
2023-05-14T20:27:38.042Z,9.37
2023-05-14T20:30:06.015Z,10.23
2023-05-14T20:32:33.196Z,7.60
2023-05-14T20:35:02.225Z,9.60
2023-05-14T20:37:30.462Z,10.07
2023-05-14T20:39:57.505Z,9.33
2023-05-14T20:42:24.879Z,10.10
2023-05-14T20:44:53.248Z,10.23
2023-05-14T20:47:23.522Z,10.17
2023-05-14T20:49:51.235Z,9.10
2023-05-14T20:52:18.854Z,8.47
2023-05-14T20:54:45.975Z,9.37
2023-05-14T20:57:15.345Z,8.10
2023-05-14T20:59:42.701Z,8.77
2023-05-14T21:02:09.870Z,9.73
2023-05-14T21:04:37.048Z,8.10
2023-05-14T21:07:05.213Z,9.40
2023-05-14T21:09:32.133Z,8.10
2023-05-14T21:11:59.050Z,9.03
2023-05-14T21:14:26.000Z,9.93
2023-05-14T21:16:52.880Z,8.80
2023-05-14T21:19:19.911Z,8.47
2023-05-14T21:21:47.387Z,8.17
2023-05-14T21:24:16.660Z,8.13
2023-05-14T21:26:43.655Z,8.07
2023-05-14T21:29:11.065Z,7.30
2023-05-14T21:31:38.030Z,7.70
2023-05-14T21:34:05.084Z,7.93
2023-05-14T21:36:32.117Z,7.23
2023-05-14T21:38:59.041Z,8.93
2023-05-14T21:41:25.955Z,8.67
2023-05-14T21:43:52.922Z,7.93
2023-05-14T21:46:19.855Z,8.00
2023-05-14T21:48:46.916Z,8.73
2023-05-14T21:51:13.996Z,8.53
2023-05-14T21:53:40.874Z,7.77
2023-05-14T21:56:08.238Z,8.30
2023-05-14T21:58:35.896Z,8.17
2023-05-14T22:03:55.099Z,8.03
2023-05-14T22:06:22.644Z,9.13
2023-05-14T22:08:49.493Z,8.00
2023-05-14T22:11:16.429Z,8.20
2023-05-14T22:13:43.330Z,8.00
2023-05-14T22:16:13.188Z,8.17
2023-05-14T22:18:40.834Z,7.97
2023-05-14T22:21:07.958Z,8.50
2023-05-14T22:23:34.844Z,8.53
2023-05-14T22:26:01.879Z,8.90
2023-05-14T22:28:28.832Z,8.37
2023-05-14T22:30:56.599Z,9.40
2023-05-14T22:33:23.583Z,9.33
2023-05-14T22:35:50.544Z,11.10
2023-05-14T22:38:17.493Z,10.00
2023-05-14T22:40:44.351Z,9.33
2023-05-14T22:43:11.319Z,9.00
2023-05-14T22:45:38.242Z,9.57
2023-05-14T22:48:05.273Z,10.37
2023-05-14T22:50:32.419Z,10.13
2023-05-14T22:52:59.263Z,11.33
2023-05-14T22:55:26.528Z,9.70
2023-05-14T22:57:53.622Z,10.33
2023-05-14T23:00:20.513Z,10.00
2023-05-14T23:02:47.429Z,8.93
2023-05-14T23:05:14.513Z,10.10
2023-05-14T23:07:41.601Z,9.47
2023-05-14T23:10:09.165Z,9.70
2023-05-14T23:12:36.440Z,10.40
2023-05-14T23:15:04.039Z,9.47
2023-05-14T23:17:31.145Z,10.20
2023-05-14T23:19:58.170Z,9.00
2023-05-14T23:22:25.415Z,9.80
2023-05-14T23:24:52.731Z,9.07
2023-05-14T23:27:19.864Z,10.50
2023-05-14T23:29:46.888Z,9.87
2023-05-14T23:32:14.059Z,10.13
2023-05-14T23:34:41.131Z,9.47
2023-05-14T23:37:08.265Z,10.13
2023-05-14T23:39:35.356Z,10.50
2023-05-14T23:42:02.519Z,10.50
2023-05-14T23:44:29.581Z,10.97
2023-05-14T23:46:56.584Z,10.37
2023-05-14T23:49:23.732Z,10.90
2023-05-14T23:51:50.781Z,10.03
2023-05-14T23:54:17.907Z,10.40
2023-05-14T23:56:45.029Z,11.40
2023-05-14T23:59:12.386Z,11.87
